Time;durP1;ratioP1;P1;durP2;ratioP2;P2;SDS_P1;SDS_P2;PMS_P1;PMS_P2;Temp;Humidity;BMP_temperature;BMP_pressure;BME280_temperature;BME280_humidity;BME280_pressure;Samples;Min_cycle;Max_cycle;Signal;HPM_P1;HPM_P2
2022/03/20 00:00:26;;;;;;;111.90;52.10;;;;;;;-4.30;59.20;103498.95;84812;1325;25426;-76
2022/03/20 00:02:53;;;;;;;115.80;53.00;;;;;;;-4.31;58.94;103498.21;84769;1326;25333;-76
2022/03/20 00:05:02;;;;;;;107.80;52.80;;;;;;;-4.33;59.05;103498.26;84791;1323;22634;-76
2022/03/20 00:07:12;;;;;;;105.50;50.20;;;;;;;-4.36;58.87;103493.73;84701;1327;24709;-76
2022/03/20 00:09:20;;;;;;;106.30;50.20;;;;;;;-4.41;59.00;103491.54;84798;1327;22597;-71
2022/03/20 00:11:32;;;;;;;112.90;51.60;;;;;;;-4.44;58.97;103493.16;84793;1326;22602;-71
2022/03/20 00:13:42;;;;;;;104.40;51.40;;;;;;;-4.48;59.41;103497.34;84772;1322;22689;-71
2022/03/20 00:15:52;;;;;;;112.90;48.40;;;;;;;-4.51;59.36;103494.34;84801;1327;22603;-76
2022/03/20 00:18:01;;;;;;;109.70;50.70;;;;;;;-4.54;59.40;103495.50;84078;1327;1003811;-75
2022/03/20 00:20:13;;;;;;;109.40;50.40;;;;;;;-4.56;59.60;103489.73;84115;1319;1003433;-75
2022/03/20 00:22:25;;;;;;;106.80;50.30;;;;;;;-4.57;59.60;103490.96;84797;1326;24229;-75
2022/03/20 00:24:36;;;;;;;108.00;50.30;;;;;;;-4.61;59.51;103491.05;84781;1326;22606;-76
2022/03/20 00:26:46;;;;;;;110.50;49.40;;;;;;;-4.64;59.86;103489.48;84790;1318;25419;-76
2022/03/20 00:29:05;;;;;;;99.00;48.00;;;;;;;-4.66;60.25;103488.44;84770;1322;22581;-74
2022/03/20 00:31:14;;;;;;;99.60;47.70;;;;;;;-4.68;60.20;103487.67;84705;1327;22549;-70
2022/03/20 00:33:22;;;;;;;92.00;45.30;;;;;;;-4.68;60.40;103491.40;84779;1326;22659;-71
2022/03/20 00:35:31;;;;;;;98.10;45.30;;;;;;;-4.68;60.51;103491.72;84801;1326;22816;-71
2022/03/20 00:37:40;;;;;;;88.90;45.30;;;;;;;-4.67;60.68;103493.70;84763;1327;22611;-71
2022/03/20 00:39:48;;;;;;;100.00;45.20;;;;;;;-4.67;60.39;103493.69;84800;1325;24323;-74
2022/03/20 00:41:59;;;;;;;94.60;46.30;;;;;;;-4.68;60.41;103494.14;84788;1318;22599;-76
2022/03/20 00:44:09;;;;;;;104.30;51.90;;;;;;;-4.69;60.46;103493.75;84769;1327;22606;-75
2022/03/20 00:46:19;;;;;;;;;;;;;;;-4.69;60.59;103497.69;84038;1327;1003254;-76
2022/03/20 00:48:30;;;;;;;109.50;50.80;;;;;;;-4.71;60.82;103499.35;84775;1327;22584;-76
2022/03/20 00:50:40;;;;;;;100.30;50.90;;;;;;;-4.72;60.63;103497.11;84827;1326;22604;-71
2022/03/20 00:52:48;;;;;;;124.80;54.70;;;;;;;-4.72;60.75;103496.39;84100;1327;1003842;-71
2022/03/20 00:55:00;;;;;;;100.90;48.30;;;;;;;-4.73;60.90;103497.88;84784;1327;23850;-77
2022/03/20 00:57:09;;;;;;;99.10;48.60;;;;;;;-4.73;61.03;103496.17;84060;1326;1003050;-77
2022/03/20 00:59:18;;;;;;;96.60;47.10;;;;;;;-4.72;61.19;103500.30;84795;1326;22667;-72
2022/03/20 01:01:28;;;;;;;93.10;47.60;;;;;;;-4.73;60.90;103497.84;84081;1326;1002911;-72
2022/03/20 01:03:40;;;;;;;105.20;47.40;;;;;;;-4.77;60.92;103497.34;84730;1327;22597;-72
2022/03/20 01:05:49;;;;;;;108.80;50.40;;;;;;;-4.82;60.79;103498.84;84764;1325;22573;-72
2022/03/20 01:07:57;;;;;;;99.30;47.90;;;;;;;-4.88;60.94;103496.18;84753;1327;26472;-72
2022/03/20 01:10:07;;;;;;;102.00;48.70;;;;;;;-4.91;61.58;103500.73;84799;1328;22812;-77
2022/03/20 01:12:15;;;;;;;98.60;49.20;;;;;;;-4.92;61.52;103498.46;84786;1318;22734;-76
2022/03/20 01:14:24;;;;;;;84.80;38.50;;;;;;;-4.94;61.46;103499.20;84079;1326;1002921;-76
2022/03/20 01:16:33;;;;;;;100.20;48.60;;;;;;;-4.98;61.53;103500.58;84792;1325;22970;-75
2022/03/20 01:18:41;;;;;;;106.60;50.90;;;;;;;-5.02;61.33;103497.88;84808;1327;24207;-76
2022/03/20 01:20:52;;;;;;;100.90;49.50;;;;;;;-5.07;61.61;103500.73;84101;1326;1003292;-76
2022/03/20 01:23:04;;;;;;;102.40;49.30;;;;;;;-5.11;61.83;103503.13;84088;1327;1002956;-76
2022/03/20 01:25:13;;;;;;;96.60;46.80;;;;;;;-5.11;62.17;103503.46;84104;1326;1003630;-70
2022/03/20 01:27:25;;;;;;;109.60;49.10;;;;;;;-5.13;61.77;103504.02;84085;1325;1003038;-70
2022/03/20 01:29:34;;;;;;;91.40;45.40;;;;;;;-5.17;61.97;103504.21;84794;1326;22580;-74
2022/03/20 01:31:43;;;;;;;93.00;44.30;;;;;;;-5.21;61.94;103504.64;84758;1325;24629;-75
2022/03/20 01:33:51;;;;;;;92.10;47.50;;;;;;;-5.22;61.99;103507.63;84799;1329;23097;-75
2022/03/20 01:36:03;;;;;;;105.70;48.30;;;;;;;-5.22;62.21;103501.98;84731;1329;22571;-75
2022/03/20 01:38:18;;;;;;;101.30;50.80;;;;;;;-5.22;62.28;103499.64;84708;1327;25454;-76
2022/03/20 01:40:27;;;;;;;112.20;52.50;;;;;;;-5.19;62.35;103498.79;84007;1326;1003108;-70
2022/03/20 01:42:39;;;;;;;111.90;52.90;;;;;;;-5.17;62.53;103497.60;84036;1326;1002558;-70
2022/03/20 01:44:47;;;;;;;121.40;55.60;;;;;;;-5.16;62.48;103494.42;84800;1326;22603;-71
2022/03/20 01:46:59;;;;;;;114.90;55.20;;;;;;;-5.15;62.59;103496.04;84776;1326;25269;-70
2022/03/20 01:49:08;;;;;;;118.70;55.10;;;;;;;-5.16;62.64;103496.98;84751;1327;22674;-71
2022/03/20 01:51:17;;;;;;;116.90;54.80;;;;;;;-5.19;62.68;103495.26;84724;1327;24213;-71
2022/03/20 01:53:28;;;;;;;113.00;56.20;;;;;;;-5.21;62.65;103496.14;84009;1328;1003692;-70
2022/03/20 01:55:37;;;;;;;109.00;52.30;;;;;;;-5.23;62.52;103496.27;84774;1327;22601;-70
2022/03/20 01:57:49;;;;;;;106.70;53.00;;;;;;;-5.26;62.71;103499.45;84771;1327;22606;-71
2022/03/20 01:59:56;;;;;;;98.90;51.70;;;;;;;-5.29;62.70;103497.82;84751;1328;22604;-70
2022/03/20 02:02:05;;;;;;;107.80;52.10;;;;;;;-5.32;62.74;103499.66;84729;1328;22626;-71
2022/03/20 02:04:18;;;;;;;105.80;51.10;;;;;;;-5.37;62.81;103499.09;84009;1327;1003120;-71
2022/03/20 02:06:30;;;;;;;104.60;50.70;;;;;;;-5.41;62.95;103502.20;83959;1322;1003553;-71
2022/03/20 02:08:38;;;;;;;104.40;51.00;;;;;;;-5.45;62.79;103499.69;84712;1327;22834;-71
2022/03/20 02:10:50;;;;;;;109.70;53.70;;;;;;;-5.49;62.76;103500.60;84691;1327;24895;-76
2022/03/20 02:13:01;;;;;;;117.20;53.90;;;;;;;-5.52;62.92;103499.80;84732;1327;22677;-75
2022/03/20 02:15:14;;;;;;;112.10;52.90;;;;;;;-5.56;63.16;103495.05;84756;1327;23893;-70
2022/03/20 02:17:22;;;;;;;101.70;49.20;;;;;;;-5.61;62.96;103493.00;84030;1327;1002955;-71
2022/03/20 02:19:31;;;;;;;108.10;51.70;;;;;;;-5.65;63.00;103492.66;84790;1327;22587;-74
2022/03/20 02:21:43;;;;;;;108.80;51.40;;;;;;;-5.68;63.08;103492.45;84075;1326;1003868;-76
2022/03/20 02:23:51;;;;;;;101.60;50.10;;;;;;;-5.70;63.26;103491.79;84034;1327;1003008;-76
2022/03/20 02:26:00;;;;;;;109.70;52.60;;;;;;;-5.69;63.55;103491.34;84728;1327;25451;-75
2022/03/20 02:28:09;;;;;;;102.30;52.20;;;;;;;-5.68;63.89;103491.77;84724;1327;22854;-76
2022/03/20 02:30:22;;;;;;;113.70;51.40;;;;;;;-5.68;63.91;103489.57;84750;1325;22640;-76
2022/03/20 02:32:31;;;;;;;109.60;52.70;;;;;;;-5.68;63.95;103488.90;84737;1326;26485;-75
2022/03/20 02:34:45;;;;;;;106.30;48.70;;;;;;;-5.66;64.12;103490.24;84806;1326;23837;-71
2022/03/20 02:36:53;;;;;;;99.60;49.60;;;;;;;-5.64;64.20;103489.15;84101;1328;1003086;-70
2022/03/20 02:39:02;;;;;;;110.30;52.60;;;;;;;-5.63;64.38;103487.53;84720;1327;22600;-74
2022/03/20 02:41:15;;;;;;;112.60;52.20;;;;;;;-5.64;64.46;103488.34;84079;1326;1003108;-77
2022/03/20 02:43:28;;;;;;;115.40;56.00;;;;;;;-5.64;64.53;103490.23;84789;1327;24067;-75
2022/03/20 02:45:40;;;;;;;111.80;53.70;;;;;;;-5.65;64.37;103495.89;84068;1325;1003063;-75
2022/03/20 02:47:50;;;;;;;107.00;50.90;;;;;;;-5.67;64.36;103494.21;84777;1318;22595;-76
2022/03/20 02:50:13;;;;;;;110.40;49.90;;;;;;;-5.70;64.21;103493.52;84096;1326;1003826;-76
2022/03/20 02:52:26;;;;;;;116.40;51.20;;;;;;;-5.73;64.18;103492.27;84789;1327;24271;-75
2022/03/20 02:54:35;;;;;;;114.00;52.40;;;;;;;-5.77;64.20;103493.31;84105;1326;1003818;-70
2022/03/20 02:56:43;;;;;;;110.40;52.50;;;;;;;-5.81;64.13;103498.41;84774;1327;22595;-71
2022/03/20 02:58:54;;;;;;;109.30;51.40;;;;;;;-5.86;64.37;103494.13;84087;1326;1003003;-71
2022/03/20 03:01:06;;;;;;;102.90;51.10;;;;;;;-5.90;64.45;103496.66;84790;1327;22985;-75
2022/03/20 03:03:14;;;;;;;102.40;48.90;;;;;;;-5.92;64.36;103499.41;84748;1327;22603;-75
2022/03/20 03:05:24;;;;;;;109.70;50.90;;;;;;;-5.93;64.53;103502.40;84767;1327;22817;-76
2022/03/20 03:10:55;;;;;;;102.60;51.10;;;;;;;-5.94;64.68;103505.04;84734;1327;22740;-75
2022/03/20 03:12:32;;;;;;;106.50;51.30;;;;;;;-5.95;65.12;103507.15;84750;1330;22921;-75
2022/03/20 03:17:07;;;;;;;115.40;52.40;;;;;;;-5.98;64.97;103506.77;84677;1329;22586;-71
2022/03/20 03:19:19;;;;;;;107.30;54.90;;;;;;;-5.99;65.06;103504.67;84778;1326;22578;-73
2022/03/20 03:21:31;;;;;;;124.80;55.00;;;;;;;-5.97;65.26;103506.87;84740;1327;23893;-76
2022/03/20 03:23:42;;;;;;;112.40;53.90;;;;;;;-5.93;65.25;103505.62;84833;1330;23843;-71
2022/03/20 03:25:51;;;;;;;117.50;55.10;;;;;;;-5.90;65.48;103503.80;84794;1326;25230;-75
2022/03/20 03:28:02;;;;;;;116.90;55.10;;;;;;;-5.87;65.31;103503.68;84744;1327;22844;-76
2022/03/20 03:30:14;;;;;;;106.60;51.60;;;;;;;-5.85;65.20;103501.16;84682;1329;24299;-70
2022/03/20 03:32:26;;;;;;;116.40;52.80;;;;;;;-5.84;65.27;103496.11;84794;1327;22837;-71
2022/03/20 03:37:00;;;;;;;111.10;53.70;;;;;;;-5.84;65.11;103493.42;83990;1327;1002513;-75
2022/03/20 03:39:12;;;;;;;119.60;52.10;;;;;;;-5.86;65.28;103491.73;84767;1328;22648;-71
2022/03/20 03:41:21;;;;;;;108.80;53.00;;;;;;;-5.87;65.35;103494.52;84724;1328;25609;-70
2022/03/20 03:43:32;;;;;;;109.40;52.30;;;;;;;-5.90;65.30;103492.14;84734;1328;22636;-70
2022/03/20 03:45:45;;;;;;;120.40;55.00;;;;;;;-5.91;65.37;103489.65;84744;1325;22652;-70
2022/03/20 03:47:54;;;;;;;125.40;56.00;;;;;;;-5.92;65.23;103493.46;84815;1327;22597;-70
2022/03/20 03:50:07;;;;;;;133.40;60.40;;;;;;;-5.93;65.26;103495.23;84766;1327;27158;-75
2022/03/20 03:52:19;;;;;;;133.00;59.20;;;;;;;-5.94;65.26;103492.28;84793;1328;22612;-75
2022/03/20 03:54:30;;;;;;;135.60;57.00;;;;;;;-5.95;65.42;103494.10;84097;1325;1002879;-76
2022/03/20 03:56:41;;;;;;;126.10;54.40;;;;;;;-5.95;65.38;103494.76;84778;1327;22828;-75
2022/03/20 03:58:53;;;;;;;114.40;50.70;;;;;;;-5.95;65.38;103495.50;84800;1325;23911;-74
2022/03/20 04:01:05;;;;;;;99.20;46.50;;;;;;;-5.94;65.35;103494.71;84070;1323;1003423;-70
2022/03/20 04:03:13;;;;;;;104.20;51.40;;;;;;;-5.94;65.20;103501.30;84730;1327;22588;-70
2022/03/20 04:05:24;;;;;;;108.90;51.40;;;;;;;-5.93;65.40;103503.91;84820;1327;22618;-70
2022/03/20 04:07:36;;;;;;;126.10;53.50;;;;;;;-5.92;65.35;103502.49;84777;1326;22773;-70
2022/03/20 04:09:44;;;;;;;125.50;55.90;;;;;;;-5.91;65.20;103500.49;84762;1327;22601;-72
2022/03/20 04:11:55;;;;;;;136.60;57.60;;;;;;;-5.92;65.12;103504.73;84062;1326;1002954;-70
2022/03/20 04:14:03;;;;;;;143.50;57.40;;;;;;;-5.93;65.10;103503.95;84811;1327;24303;-74
2022/03/20 04:16:11;;;;;;;130.60;57.20;;;;;;;-5.94;65.20;103504.89;84731;1329;22580;-75
2022/03/20 04:18:22;;;;;;;135.60;59.40;;;;;;;-5.97;64.86;103501.63;84744;1327;22749;-75
2022/03/20 04:20:31;;;;;;;121.20;53.90;;;;;;;-6.01;64.97;103504.88;84788;1327;22887;-75
2022/03/20 04:23:42;;;;;;;125.50;56.70;;;;;;;-6.03;65.16;103505.70;84807;1326;23891;-74
2022/03/20 04:25:16;;;;;;;129.90;56.10;;;;;;;-6.07;65.31;103504.05;84069;1327;1003418;-70
2022/03/20 04:27:25;;;;;;;119.80;52.60;;;;;;;-6.10;65.24;103505.19;84045;1330;1003164;-70
2022/03/20 04:29:36;;;;;;;118.10;55.20;;;;;;;-6.13;65.11;103504.55;84844;1327;21868;-71
2022/03/20 04:31:45;;;;;;;112.10;51.70;;;;;;;-6.16;65.05;103510.29;84059;1327;1003697;-71
2022/03/20 04:33:57;;;;;;;122.60;53.20;;;;;;;-6.20;65.10;103507.91;84794;1326;22875;-71
2022/03/20 04:36:09;;;;;;;112.90;50.20;;;;;;;-6.23;65.35;103510.23;84710;1327;24248;-72
2022/03/20 04:38:21;;;;;;;115.50;51.60;;;;;;;-6.25;65.33;103511.25;84003;1327;1003696;-71
2022/03/20 04:40:32;;;;;;;117.60;50.90;;;;;;;-6.28;65.31;103504.93;84803;1329;24911;-75
2022/03/20 04:42:40;;;;;;;116.70;50.70;;;;;;;-6.29;65.41;103504.69;84795;1326;24357;-75
2022/03/20 04:44:52;;;;;;;107.60;50.00;;;;;;;-6.29;65.59;103509.44;84734;1327;22798;-75
2022/03/20 04:47:00;;;;;;;104.00;48.00;;;;;;;-6.29;65.87;103513.17;84808;1327;22573;-76
2022/03/20 04:59:03;;;;;;;125.00;52.40;;;;;;;-6.14;66.02;103523.85;84691;1327;22841;-74
2022/03/20 05:01:12;;;;;;;129.00;53.60;;;;;;;-6.12;66.03;103523.00;84775;1326;22585;-77
2022/03/20 05:03:20;;;;;;;118.00;53.00;;;;;;;-6.09;65.99;103522.57;84060;1322;1003423;-75
2022/03/20 05:05:29;;;;;;;131.30;58.00;;;;;;;-6.08;66.01;103523.15;84808;1326;22783;-71
2022/03/20 05:07:40;;;;;;;129.90;52.80;;;;;;;-6.08;66.01;103522.34;84791;1326;24296;-72
2022/03/20 05:14:42;;;;;;;111.30;50.70;;;;;;;-6.02;66.00;103530.62;84463;1333;22942;-76
2022/03/20 05:16:52;;;;;;;122.90;53.60;;;;;;;-5.99;66.03;103531.34;84471;1335;22609;-75
2022/03/20 05:19:02;;;;;;;;;;;;;;;-5.96;66.16;103530.73;84486;1333;24220;-74
2022/03/20 05:21:10;;;;;;;110.20;49.70;;;;;;;-5.94;66.41;103535.14;83779;1334;1003650;-76
2022/03/20 05:23:19;;;;;;;113.40;50.80;;;;;;;-5.87;66.38;103534.83;84438;1336;22595;-75
2022/03/20 05:25:28;;;;;;;114.00;53.00;;;;;;;-5.71;66.44;103538.66;84527;1333;25272;-71
2022/03/20 05:27:39;;;;;;;109.30;50.00;;;;;;;-5.63;66.29;103540.95;84033;1330;1002965;-72
2022/03/20 05:29:47;;;;;;;112.60;50.20;;;;;;;-5.58;66.43;103545.83;84724;1328;22839;-72
2022/03/20 05:31:55;;;;;;;119.00;51.30;;;;;;;-5.50;66.50;103548.98;84743;1326;22667;-73
2022/03/20 05:34:06;;;;;;;112.80;51.40;;;;;;;-5.40;66.38;103551.93;84692;1328;24268;-72
2022/03/20 05:36:18;;;;;;;110.30;51.50;;;;;;;-5.29;66.26;103552.83;84720;1327;22581;-71
2022/03/20 05:38:30;;;;;;;111.20;47.50;;;;;;;-5.16;66.19;103550.26;84762;1327;25460;-72
2022/03/20 05:40:39;;;;;;;121.10;55.60;;;;;;;-5.05;66.21;103552.13;84015;1324;1003053;-76
2022/03/20 05:42:47;;;;;;;112.20;53.30;;;;;;;-4.96;66.11;103550.73;84043;1327;1003984;-76
2022/03/20 05:45:00;;;;;;;116.10;52.60;;;;;;;-4.86;65.97;103553.59;84737;1322;25535;-71
2022/03/20 05:47:12;;;;;;;117.10;54.00;;;;;;;-4.74;66.04;103552.09;84013;1326;1003606;-71
2022/03/20 05:49:20;;;;;;;115.20;53.10;;;;;;;-4.62;66.01;103553.71;84730;1330;24272;-71
2022/03/20 05:51:30;;;;;;;106.80;53.00;;;;;;;-4.46;65.98;103552.48;84711;1326;22605;-71
2022/03/20 05:53:38;;;;;;;109.50;51.40;;;;;;;-3.97;66.13;103552.51;84704;1327;22584;-71
2022/03/20 05:58:15;;;;;;;105.70;52.30;;;;;;;-1.62;66.77;103551.10;84747;1327;22798;-75
2022/03/20 06:00:23;;;;;;;111.50;52.60;;;;;;;-0.19;66.27;103543.06;84052;1326;1003025;-75
2022/03/20 06:02:31;;;;;;;99.60;53.90;;;;;;;1.15;64.23;103544.83;84682;1332;22584;-77
2022/03/20 06:04:43;;;;;;;105.10;53.00;;;;;;;2.51;61.67;103544.27;84737;1327;24414;-77
2022/03/20 06:06:51;;;;;;;102.50;52.00;;;;;;;3.74;58.14;103541.67;84739;1329;22947;-77
2022/03/20 06:09:02;;;;;;;99.60;50.70;;;;;;;4.73;54.88;103540.18;84752;1328;24370;-73
2022/03/20 06:11:10;;;;;;;87.50;48.60;;;;;;;5.69;52.48;103542.33;84728;1327;22595;-74
2022/03/20 06:13:18;;;;;;;91.50;50.40;;;;;;;6.52;49.95;103540.80;84742;1327;22594;-72
2022/03/20 06:15:28;;;;;;;87.90;47.60;;;;;;;7.20;46.92;103541.16;84784;1329;22580;-72
2022/03/20 06:17:39;;;;;;;82.00;45.60;;;;;;;7.87;45.32;103536.96;84759;1327;22872;-70
2022/03/20 06:19:49;;;;;;;79.00;45.50;;;;;;;8.37;43.55;103538.30;84776;1330;26663;-78
2022/03/20 06:21:55;;;;;;;;;;;;;;;8.86;41.77;103543.67;84704;1329;24074;-78
2022/03/20 06:24:04;;;;;;;76.20;43.60;;;;;;;8.99;40.69;103543.24;84726;1329;23971;-72
2022/03/20 06:26:13;;;;;;;75.40;42.20;;;;;;;9.29;39.57;103545.03;84786;1327;24052;-72
2022/03/20 06:28:21;;;;;;;72.00;42.30;;;;;;;9.48;39.05;103548.15;84721;1328;22764;-72
2022/03/20 06:30:33;;;;;;;75.00;44.50;;;;;;;9.65;37.67;103550.89;84843;1327;26050;-77
2022/03/20 06:32:40;;;;;;;81.10;45.40;;;;;;;10.18;36.58;103548.23;84788;1326;22597;-77
2022/03/20 06:34:47;;;;;;;74.20;43.40;;;;;;;10.62;35.62;103546.41;84816;1327;22640;-78
2022/03/20 06:36:57;;;;;;;65.70;40.90;;;;;;;10.83;34.79;103548.24;84773;1328;25448;-77
2022/03/20 06:39:04;;;;;;;58.60;36.20;;;;;;;10.86;34.71;103547.75;84762;1327;22716;-76
2022/03/20 06:41:11;;;;;;;57.10;32.60;;;;;;;10.64;33.61;103550.27;84816;1327;22621;-77
2022/03/20 06:43:18;;;;;;;60.00;34.40;;;;;;;10.91;32.65;103549.91;84724;1327;24113;-77
2022/03/20 06:45:25;;;;;;;54.60;31.10;;;;;;;11.08;31.88;103547.83;84800;1326;22984;-77
2022/03/20 06:47:32;;;;;;;53.50;32.90;;;;;;;11.41;31.43;103549.73;84814;1326;24364;-77
2022/03/20 06:49:43;;;;;;;54.20;31.80;;;;;;;12.00;30.96;103552.52;84789;1329;22943;-72
2022/03/20 06:51:52;;;;;;;52.40;32.20;;;;;;;12.44;30.14;103547.34;84811;1325;22614;-73
2022/03/20 06:53:59;;;;;;;49.20;28.50;;;;;;;12.79;28.94;103549.43;84822;1329;22667;-71
2022/03/20 06:56:07;;;;;;;48.90;28.50;;;;;;;13.08;28.48;103552.66;84722;1328;22708;-71
2022/03/20 06:58:18;;;;;;;45.50;27.70;;;;;;;13.40;27.76;103554.15;84787;1327;22812;-71
2022/03/20 07:00:26;;;;;;;41.70;26.80;;;;;;;13.67;26.98;103556.98;84693;1327;23990;-70
2022/03/20 07:02:35;;;;;;;47.80;28.50;;;;;;;13.80;26.23;103557.85;84777;1327;22589;-72
2022/03/20 07:04:42;;;;;;;41.10;27.20;;;;;;;13.95;25.42;103561.52;84801;1327;24363;-70
2022/03/20 07:06:52;;;;;;;46.20;27.30;;;;;;;14.12;25.54;103557.98;84776;1327;23039;-72
2022/03/20 07:08:59;;;;;;;;;;;;;;;14.50;25.16;103558.25;84793;1327;22556;-70
2022/03/20 07:11:09;;;;;;;36.00;22.30;;;;;;;14.85;24.22;103559.70;84806;1328;22696;-70
2022/03/20 07:15:40;;;;;;;36.90;24.10;;;;;;;15.43;23.95;103554.24;84784;1327;22597;-72
2022/03/20 07:17:48;;;;;;;42.80;25.90;;;;;;;15.62;23.55;103557.61;84723;1327;24356;-70
2022/03/20 07:19:54;;;;;;;36.60;24.30;;;;;;;15.63;22.55;103550.22;84759;1327;22664;-71
2022/03/20 07:22:01;;;;;;;37.60;24.50;;;;;;;15.56;22.72;103552.55;84797;1327;22873;-72
2022/03/20 07:24:08;;;;;;;39.10;25.40;;;;;;;15.67;22.42;103552.14;84808;1327;22590;-71
2022/03/20 07:31:10;;;;;;;33.80;23.00;;;;;;;16.91;21.16;103544.42;84779;1326;23981;-76
2022/03/20 07:33:20;;;;;;;29.90;21.30;;;;;;;17.44;20.44;103544.33;84786;1329;22601;-76
2022/03/20 07:35:30;;;;;;;31.70;21.30;;;;;;;17.75;19.88;103538.89;84742;1327;22703;-77
2022/03/20 07:37:40;;;;;;;30.30;19.70;;;;;;;18.12;20.34;103535.38;84806;1326;22658;-72
2022/03/20 07:39:47;;;;;;;25.80;16.70;;;;;;;18.44;19.25;103530.67;83128;1326;2406337;-69
2022/03/20 07:41:57;;;;;;;21.50;15.50;;;;;;;18.96;19.04;103531.16;84783;1326;22630;-71
2022/03/20 07:44:04;;;;;;;21.10;13.80;;;;;;;19.60;18.41;103531.92;84821;1327;22569;-70
2022/03/20 07:46:12;;;;;;;17.00;13.90;;;;;;;20.22;16.84;103525.65;84766;1326;22618;-70
2022/03/20 07:48:21;;;;;;;15.20;11.70;;;;;;;20.49;17.02;103528.25;84798;1327;22587;-70
2022/03/20 07:50:29;;;;;;;11.30;10.10;;;;;;;20.85;16.62;103528.95;84853;1327;22997;-79
2022/03/20 07:52:40;;;;;;;14.40;9.40;;;;;;;21.35;15.42;103533.77;84765;1327;22600;-78
2022/03/20 07:54:55;;;;;;;12.10;9.30;;;;;;;21.57;15.66;103527.88;84833;1327;26213;-79
2022/03/20 07:57:08;;;;;;;14.80;10.30;;;;;;;21.61;14.68;103528.25;84738;1328;22665;-78
2022/03/20 07:59:17;;;;;;;13.30;9.60;;;;;;;21.62;14.57;103526.27;84782;1328;23793;-73
2022/03/20 08:01:30;;;;;;;12.60;8.40;;;;;;;21.60;14.11;103526.36;84824;1327;22747;-71
2022/03/20 08:03:41;;;;;;;12.00;8.90;;;;;;;21.52;13.75;103531.05;84793;1325;22796;-71
2022/03/20 08:05:50;;;;;;;16.90;11.20;;;;;;;21.52;14.41;103530.69;84785;1326;25315;-77
2022/03/20 08:08:05;;;;;;;10.00;8.70;;;;;;;21.87;14.22;103533.21;84793;1326;22633;-76
2022/03/20 08:10:18;;;;;;;10.70;9.30;;;;;;;22.21;13.87;103529.55;84762;1327;23985;-72
2022/03/20 08:12:30;;;;;;;16.40;9.90;;;;;;;22.36;13.30;103528.98;84800;1326;25442;-69
2022/03/20 08:14:42;;;;;;;14.40;10.20;;;;;;;22.45;13.34;103528.95;84792;1327;26740;-77
2022/03/20 08:16:55;;;;;;;17.40;11.20;;;;;;;22.21;13.17;103532.90;84789;1329;22586;-79
2022/03/20 08:19:12;;;;;;;12.00;10.10;;;;;;;22.29;13.09;103531.56;84808;1327;22626;-76
2022/03/20 08:21:22;;;;;;;13.60;10.70;;;;;;;22.36;12.75;103529.14;84736;1329;22582;-75
2022/03/20 08:23:36;;;;;;;16.40;11.80;;;;;;;22.15;13.22;103534.52;84797;1325;22596;-78
2022/03/20 08:25:48;;;;;;;16.90;12.10;;;;;;;22.36;12.92;103529.15;84810;1326;22582;-71
2022/03/20 08:28:00;;;;;;;17.10;12.00;;;;;;;22.57;12.93;103527.27;84793;1328;25462;-71
2022/03/20 08:30:20;;;;;;;17.10;12.50;;;;;;;22.85;12.49;103524.38;84777;1329;23895;-71
2022/03/20 08:32:34;;;;;;;14.20;11.20;;;;;;;22.76;11.74;103525.48;84719;1327;22584;-73
2022/03/20 08:34:43;;;;;;;15.20;11.80;;;;;;;22.49;11.99;103524.37;84773;1323;24383;-77
2022/03/20 08:36:55;;;;;;;16.90;12.90;;;;;;;22.39;12.23;103522.63;84812;1327;22803;-77
2022/03/20 08:39:04;;;;;;;19.10;12.50;;;;;;;22.68;12.14;103524.02;84714;1327;24274;-77
2022/03/20 08:41:15;;;;;;;16.60;12.80;;;;;;;22.76;11.91;103523.15;84793;1329;25655;-77
2022/03/20 08:43:25;;;;;;;18.20;11.50;;;;;;;22.82;12.08;103524.33;84785;1329;22588;-77
2022/03/20 08:45:37;;;;;;;14.40;9.70;;;;;;;22.88;11.83;103527.32;84811;1327;22639;-72
2022/03/20 08:47:47;;;;;;;11.50;9.80;;;;;;;22.96;11.88;103527.20;84790;1326;22603;-71
2022/03/20 08:49:56;;;;;;;14.40;9.90;;;;;;;22.91;11.89;103523.65;84831;1321;22592;-78
2022/03/20 08:52:10;;;;;;;13.20;10.10;;;;;;;23.00;11.70;103524.21;84725;1326;24077;-71
2022/03/20 08:54:23;;;;;;;11.00;9.10;;;;;;;23.07;11.33;103519.63;84793;1326;22586;-77
2022/03/20 08:56:35;;;;;;;10.90;9.70;;;;;;;22.98;11.69;103521.77;84808;1327;22725;-78
2022/03/20 08:58:51;;;;;;;12.70;9.70;;;;;;;22.75;10.89;103523.02;84779;1329;23883;-78
2022/03/20 09:01:00;;;;;;;21.00;12.10;;;;;;;22.53;11.54;103521.56;84795;1328;22809;-78
2022/03/20 09:03:10;;;;;;;19.40;13.00;;;;;;;22.37;11.59;103520.39;84805;1327;24123;-78
2022/03/20 09:05:22;;;;;;;14.60;11.40;;;;;;;22.47;11.73;103521.98;84784;1322;22731;-73
2022/03/20 09:07:34;;;;;;;18.40;11.40;;;;;;;22.38;11.48;103519.11;84798;1326;24203;-72
2022/03/20 09:09:46;;;;;;;16.70;12.20;;;;;;;22.43;11.61;103519.84;84777;1327;24270;-71
2022/03/20 09:11:57;;;;;;;13.10;10.90;;;;;;;22.62;11.55;103514.95;84772;1327;22711;-72
2022/03/20 09:14:06;;;;;;;14.80;11.20;;;;;;;22.59;11.85;103516.70;84801;1327;25420;-71
2022/03/20 09:19:03;;;;;;;;;;;;;;;22.37;11.66;103514.71;84814;1326;22563;-77
2022/03/20 09:21:15;;;;;;;17.90;12.20;;;;;;;22.39;11.67;103514.98;84791;1326;22580;-77
2022/03/20 09:23:24;;;;;;;22.00;14.40;;;;;;;22.36;11.51;103514.02;84779;1326;23790;-76
2022/03/20 09:25:36;;;;;;;14.30;12.10;;;;;;;22.43;11.99;103512.88;84772;1326;23750;-78
2022/03/20 09:27:44;;;;;;;13.40;11.10;;;;;;;22.72;11.54;103510.15;84813;1323;22587;-77
2022/03/20 09:29:53;;;;;;;13.20;11.00;;;;;;;22.88;11.39;103511.99;84795;1326;22579;-72
2022/03/20 09:32:02;;;;;;;12.70;10.10;;;;;;;22.61;10.74;103509.88;84801;1329;23968;-70
2022/03/20 09:34:16;;;;;;;12.20;10.40;;;;;;;22.28;11.42;103508.09;84818;1329;22593;-72
2022/03/20 09:36:25;;;;;;;11.70;9.90;;;;;;;22.20;11.97;103503.43;84808;1329;22577;-71
2022/03/20 09:38:34;;;;;;;19.70;12.80;;;;;;;22.23;11.78;103509.52;84781;1327;22591;-71
2022/03/20 09:40:43;;;;;;;16.00;12.10;;;;;;;22.34;11.48;103504.50;84812;1327;22727;-77
2022/03/20 09:42:57;;;;;;;12.90;9.60;;;;;;;22.33;11.48;103503.46;84798;1328;24241;-78
2022/03/20 09:45:12;;;;;;;13.20;9.70;;;;;;;22.31;11.38;103501.22;84817;1326;22591;-77
2022/03/20 09:47:23;;;;;;;10.90;9.60;;;;;;;22.08;11.31;103499.21;84797;1326;23014;-77
2022/03/20 09:49:34;;;;;;;34.30;24.30;;;;;;;21.94;11.79;103495.47;84796;1318;22622;-78
2022/03/20 09:51:43;;;;;;;17.50;10.90;;;;;;;21.85;11.83;103501.46;84809;1326;25461;-77
2022/03/20 09:53:57;;;;;;;15.80;9.00;;;;;;;21.83;11.95;103496.21;84759;1327;22946;-77
2022/03/20 09:56:14;;;;;;;10.20;7.80;;;;;;;21.86;11.74;103494.14;84775;1325;22603;-78
2022/03/20 09:58:30;;;;;;;9.60;8.60;;;;;;;21.46;11.68;103492.70;84783;1328;24342;-77
2022/03/20 10:00:39;;;;;;;9.60;7.50;;;;;;;20.95;11.56;103497.56;84839;1327;22581;-77
2022/03/20 10:02:48;;;;;;;9.80;8.30;;;;;;;20.37;12.06;103494.55;84800;1327;24317;-77
2022/03/20 10:04:59;;;;;;;11.60;8.70;;;;;;;19.79;12.32;103494.06;84806;1327;22664;-79
2022/03/20 10:07:21;;;;;;;11.30;8.30;;;;;;;19.09;12.39;103501.30;84806;1325;22691;-77
2022/03/20 10:09:34;;;;;;;11.10;9.10;;;;;;;18.39;12.81;103500.38;84815;1327;22612;-70
2022/03/20 10:11:53;;;;;;;10.80;8.20;;;;;;;17.71;12.88;103507.52;84778;1327;22596;-71
2022/03/20 10:14:14;;;;;;;13.00;8.40;;;;;;;16.67;13.41;103502.60;84837;1323;23965;-77
2022/03/20 10:16:22;;;;;;;9.80;8.80;;;;;;;16.16;13.95;103501.11;84835;1324;25436;-77
2022/03/20 10:18:34;;;;;;;10.90;8.00;;;;;;;15.84;14.52;103498.64;84827;1324;22745;-77
2022/03/20 10:20:47;;;;;;;8.60;7.80;;;;;;;15.48;14.51;103498.44;84882;1324;22582;-71
2022/03/20 10:22:56;;;;;;;15.50;8.70;;;;;;;15.18;15.06;103496.02;84849;1326;24147;-71
2022/03/20 10:25:05;;;;;;;11.30;8.50;;;;;;;15.01;15.49;103492.98;84859;1320;24031;-71